Cooperstown, North Dakota
Current Conditions -  °F | °C
As of 7:35 AM on Saturday 25 Oct 2014 (Local Time) from KBAC Reporting Station
Scattered Clouds Scattered Clouds  
Wind Chill: 32°   Ceiling: Unl
Heat Index: 39°   Visibility: 10mi
Dew Point: 32°   Wind: 12mph
Humidity: 75%   Direction: 290°WNW
Pressure: 30.09"   Gusts: NA
Location:  47.44°N, 98.12°W
Report Text: KBAC 251235Z AUTO 29010KT 10SM SCT120 04/00 A3009 RMK AO2
Loading
Personal Weather Stations






























Interactive Weather Map New forecast layout! Learn more

10-Day Weather Forecast

Advertisements
Track Severe Weather on mobile